Time;durP1;ratioP1;P1;durP2;ratioP2;P2;SDS_P1;SDS_P2;PMS_P1;PMS_P2;Temp;Humidity;BMP_temperature;BMP_pressure;BME280_temperature;BME280_humidity;BME280_pressure;Samples;Min_cycle;Max_cycle;Signal;HPM_P1;HPM_P2
2023/08/22 00:02:21;;;;;;;12.73;7.25;;;;;;;;;;10483079;28;20132;-76
2023/08/22 00:07:24;;;;;;;15.02;7.50;;;;;;;;;;10475015;28;20043;-76
2023/08/22 00:12:28;;;;;;;13.15;6.70;;;;;;;;;;10480408;28;20068;-76
2023/08/22 00:17:31;;;;;;;11.82;6.60;;;;;;;;;;10473055;28;20036;-76
2023/08/22 00:22:33;;;;;;;11.25;6.57;;;;;;;;;;10474877;28;20441;-77
2023/08/22 00:27:37;;;;;;;10.13;5.78;;;;;;;;;;10478167;28;20072;-76
2023/08/22 00:32:41;;;;;;;9.35;6.22;;;;;;;;;;10476523;28;20052;-76
2023/08/22 00:37:43;;;;;;;12.68;5.57;;;;;;;;;;10470114;28;20033;-76
2023/08/22 00:42:46;;;;;;;;;;;;;;;;;;10474046;28;20431;-76
2023/08/22 00:47:50;;;;;;;13.93;6.10;;;;;;;;;;10465093;28;20319;-76
2023/08/22 00:52:53;;;;;;;16.10;6.45;;;;;;;;;;10473354;28;20118;-77
2023/08/22 00:57:56;;;;;;;11.90;6.13;;;;;;;;;;10471633;28;20120;-77
2023/08/22 01:03:00;;;;;;;9.63;5.78;;;;;;;;;;10472288;28;20040;-76
2023/08/22 01:08:05;;;;;;;9.05;5.97;;;;;;;;;;10478785;28;20051;-76
2023/08/22 01:13:10;;;;;;;11.45;6.18;;;;;;;;;;10488609;28;20048;-76
2023/08/22 01:18:15;;;;;;;10.43;5.90;;;;;;;;;;10483179;28;20043;-76
2023/08/22 01:23:19;;;;;;;10.55;6.18;;;;;;;;;;10474173;28;20460;-76
2023/08/22 01:28:27;;;;;;;11.70;6.15;;;;;;;;;;10479250;28;20072;-75
2023/08/22 01:33:32;;;;;;;10.07;5.70;;;;;;;;;;10481748;28;20104;-76
2023/08/22 01:38:38;;;;;;;13.00;5.88;;;;;;;;;;10487342;28;20092;-77
2023/08/22 01:43:45;;;;;;;12.60;5.70;;;;;;;;;;10495638;28;20054;-76
2023/08/22 01:48:48;;;;;;;11.00;6.05;;;;;;;;;;10498682;28;20041;-76
2023/08/22 01:53:52;;;;;;;9.30;5.80;;;;;;;;;;10492711;28;20090;-75
2023/08/22 01:58:54;;;;;;;11.07;5.75;;;;;;;;;;10487093;28;20041;-75
2023/08/22 02:04:03;;;;;;;9.15;5.53;;;;;;;;;;10498420;28;20514;-76
2023/08/22 02:09:07;;;;;;;9.38;5.10;;;;;;;;;;10496951;28;20086;-76
2023/08/22 02:14:10;;;;;;;9.10;5.43;;;;;;;;;;10492170;28;20048;-76
2023/08/22 02:19:15;;;;;;;;;;;;;;;;;;10489830;28;20059;-75
2023/08/22 02:24:20;;;;;;;10.90;5.80;;;;;;;;;;10495021;28;19956;-75
2023/08/22 02:29:23;;;;;;;8.45;5.15;;;;;;;;;;10488668;28;20069;-75
2023/08/22 02:34:26;;;;;;;8.40;5.60;;;;;;;;;;10499994;28;20100;-75
2023/08/22 02:39:30;;;;;;;9.23;5.72;;;;;;;;;;10494550;28;20028;-76
2023/08/22 02:44:32;;;;;;;9.40;5.32;;;;;;;;;;10505636;28;20040;-74
2023/08/22 02:49:35;;;;;;;10.73;5.78;;;;;;;;;;10501660;28;20037;-74
2023/08/22 02:54:39;;;;;;;11.50;5.53;;;;;;;;;;10506073;28;20047;-76
2023/08/22 02:59:42;;;;;;;10.25;5.57;;;;;;;;;;10525248;28;20045;-76
2023/08/22 03:04:45;;;;;;;13.85;5.90;;;;;;;;;;10522428;28;20041;-76
2023/08/22 03:09:49;;;;;;;10.68;5.78;;;;;;;;;;10501661;28;20036;-76
2023/08/22 03:14:52;;;;;;;13.15;5.65;;;;;;;;;;10492779;28;20048;-76
2023/08/22 03:19:55;;;;;;;9.70;6.22;;;;;;;;;;10477414;28;20045;-75
2023/08/22 03:24:59;;;;;;;10.57;6.20;;;;;;;;;;10479329;28;20117;-75
2023/08/22 03:30:02;;;;;;;13.18;6.53;;;;;;;;;;10473429;28;20045;-76
2023/08/22 03:35:05;;;;;;;9.30;5.93;;;;;;;;;;10482930;28;20127;-76
2023/08/22 03:40:10;;;;;;;9.18;6.07;;;;;;;;;;10481783;28;20098;-75
2023/08/22 03:45:13;;;;;;;9.73;6.00;;;;;;;;;;10480726;28;20124;-75
2023/08/22 03:50:16;;;;;;;11.00;6.35;;;;;;;;;;10475812;28;20051;-76
2023/08/22 03:55:20;;;;;;;10.10;5.97;;;;;;;;;;10485544;28;20216;-75
2023/08/22 04:00:23;;;;;;;9.88;6.22;;;;;;;;;;10473244;28;20070;-76
2023/08/22 04:05:27;;;;;;;12.25;6.65;;;;;;;;;;10472106;28;20189;-77
2023/08/22 04:10:31;;;;;;;8.55;5.82;;;;;;;;;;10477651;28;20105;-77
2023/08/22 04:15:35;;;;;;;10.18;6.13;;;;;;;;;;10466384;28;20531;-77
2023/08/22 04:20:39;;;;;;;11.40;6.97;;;;;;;;;;10478680;28;20106;-76
2023/08/22 04:25:43;;;;;;;13.63;6.75;;;;;;;;;;10470678;28;20034;-77
2023/08/22 04:30:46;;;;;;;16.55;6.93;;;;;;;;;;10472058;28;20107;-76
2023/08/22 04:35:49;;;;;;;12.57;7.18;;;;;;;;;;10465940;28;20140;-76
2023/08/22 04:40:53;;;;;;;10.25;6.57;;;;;;;;;;10464616;28;20115;-76
2023/08/22 04:45:57;;;;;;;11.77;6.93;;;;;;;;;;10481156;28;20136;-76
2023/08/22 04:50:59;;;;;;;11.25;6.78;;;;;;;;;;10467592;28;20036;-76
2023/08/22 04:56:04;;;;;;;10.73;6.45;;;;;;;;;;10471221;28;20097;-76
2023/08/22 05:01:06;;;;;;;12.00;6.70;;;;;;;;;;10462337;28;20045;-76
2023/08/22 05:06:09;;;;;;;11.63;6.35;;;;;;;;;;10468277;28;20048;-77
2023/08/22 05:11:13;;;;;;;11.13;6.78;;;;;;;;;;10467584;28;20036;-76
2023/08/22 05:16:15;;;;;;;12.65;6.57;;;;;;;;;;10466439;28;20072;-76
2023/08/22 05:21:18;;;;;;;11.43;6.10;;;;;;;;;;10468785;28;20044;-76
2023/08/22 05:26:22;;;;;;;15.93;6.25;;;;;;;;;;10475139;28;20396;-77
2023/08/22 05:31:26;;;;;;;11.65;6.35;;;;;;;;;;10471313;28;20037;-76
2023/08/22 05:36:28;;;;;;;11.18;6.20;;;;;;;;;;10466257;28;20040;-77
2023/08/22 05:41:32;;;;;;;11.13;6.13;;;;;;;;;;10473972;28;20127;-76
2023/08/22 05:46:35;;;;;;;10.73;6.15;;;;;;;;;;10475899;28;20532;-77
2023/08/22 05:51:38;;;;;;;9.70;5.65;;;;;;;;;;10472023;28;20530;-76
2023/08/22 05:56:42;;;;;;;8.07;5.20;;;;;;;;;;10474042;28;20408;-77
2023/08/22 06:01:44;;;;;;;8.88;6.05;;;;;;;;;;10470930;28;20618;-77
2023/08/22 06:06:47;;;;;;;11.70;5.85;;;;;;;;;;10476005;28;20048;-77
2023/08/22 06:11:51;;;;;;;8.95;5.88;;;;;;;;;;10474779;28;20067;-77
2023/08/22 06:16:54;;;;;;;13.52;6.28;;;;;;;;;;10477257;28;20119;-77
2023/08/22 06:21:56;;;;;;;8.55;5.70;;;;;;;;;;10482403;28;20075;-77
2023/08/22 06:27:00;;;;;;;12.05;6.10;;;;;;;;;;10480373;28;20044;-76
2023/08/22 06:32:03;;;;;;;8.57;6.00;;;;;;;;;;10471297;28;20036;-76
2023/08/22 06:37:06;;;;;;;10.88;6.45;;;;;;;;;;10471832;28;20036;-76
2023/08/22 06:42:10;;;;;;;11.35;5.93;;;;;;;;;;10467821;28;20402;-76
2023/08/22 06:47:15;;;;;;;13.57;6.68;;;;;;;;;;10472039;28;20040;-75
2023/08/22 06:52:18;;;;;;;14.43;6.90;;;;;;;;;;10466004;28;20037;-76
2023/08/22 06:57:22;;;;;;;11.80;6.88;;;;;;;;;;10465865;28;20174;-76
2023/08/22 07:02:25;;;;;;;17.08;7.53;;;;;;;;;;10469550;28;20045;-75
2023/08/22 07:07:28;;;;;;;10.77;6.13;;;;;;;;;;10467252;28;20072;-76
2023/08/22 07:12:32;;;;;;;14.80;7.28;;;;;;;;;;10464741;28;20491;-76
2023/08/22 07:17:35;;;;;;;10.82;7.95;;;;;;;;;;10475488;28;20135;-76
2023/08/22 07:22:37;;;;;;;11.52;7.82;;;;;;;;;;10472926;28;20025;-76
2023/08/22 07:27:43;;;;;;;11.70;7.32;;;;;;;;;;10475763;28;20041;-75
2023/08/22 07:32:46;;;;;;;14.30;8.50;;;;;;;;;;10465732;28;20049;-76
2023/08/22 07:37:49;;;;;;;12.95;6.85;;;;;;;;;;10474888;28;20123;-77
2023/08/22 07:42:53;;;;;;;14.55;8.45;;;;;;;;;;10474477;28;20127;-77
2023/08/22 07:47:56;;;;;;;9.80;7.25;;;;;;;;;;10466955;28;20053;-77
2023/08/22 07:52:59;;;;;;;15.30;7.95;;;;;;;;;;10475661;28;20486;-78
2023/08/22 07:58:03;;;;;;;17.55;7.03;;;;;;;;;;10463883;28;20041;-75
2023/08/22 08:03:06;;;;;;;9.63;7.60;;;;;;;;;;10463219;28;20055;-76
2023/08/22 08:08:09;;;;;;;14.32;8.00;;;;;;;;;;10469633;28;20044;-80
2023/08/22 08:13:14;;;;;;;11.75;7.65;;;;;;;;;;10471853;28;20033;-77
2023/08/22 08:18:17;;;;;;;10.48;7.40;;;;;;;;;;10470120;28;20051;-77
2023/08/22 08:23:20;;;;;;;11.10;8.13;;;;;;;;;;10466583;28;20399;-77
2023/08/22 08:28:25;;;;;;;13.65;8.32;;;;;;;;;;10474198;28;20068;-76
2023/08/22 08:33:29;;;;;;;10.13;8.38;;;;;;;;;;10460121;28;20045;-77
2023/08/22 08:38:33;;;;;;;13.23;7.95;;;;;;;;;;10470721;28;20128;-77
2023/08/22 08:43:39;;;;;;;10.05;8.32;;;;;;;;;;10464206;28;20049;-78
2023/08/22 08:48:43;;;;;;;9.38;7.80;;;;;;;;;;10466728;28;20045;-77
2023/08/22 08:53:47;;;;;;;12.48;8.07;;;;;;;;;;10464344;28;20421;-77
2023/08/22 08:58:52;;;;;;;11.50;7.93;;;;;;;;;;10469588;28;20451;-77
2023/08/22 09:03:54;;;;;;;7.53;6.82;;;;;;;;;;10464309;28;20036;-77
2023/08/22 09:09:05;;;;;;;9.88;8.00;;;;;;;;;;10472893;28;20041;-77
2023/08/22 09:14:10;;;;;;;10.15;8.65;;;;;;;;;;10471471;28;20074;-78
2023/08/22 09:19:13;;;;;;;13.27;8.25;;;;;;;;;;10472173;28;20097;-78
2023/08/22 09:24:16;;;;;;;11.27;8.27;;;;;;;;;;10459658;28;20037;-78
2023/08/22 09:29:27;;;;;;;10.13;7.60;;;;;;;;;;10470632;28;20064;-74
2023/08/22 09:34:30;;;;;;;11.45;7.82;;;;;;;;;;10469655;28;20044;-75
2023/08/22 09:39:36;;;;;;;9.88;7.53;;;;;;;;;;10462400;28;20068;-77
2023/08/22 09:44:40;;;;;;;8.80;7.90;;;;;;;;;;10464944;28;20041;-77
2023/08/22 09:49:47;;;;;;;10.20;7.72;;;;;;;;;;10461490;28;20063;-77
2023/08/22 09:54:50;;;;;;;9.65;7.10;;;;;;;;;;10465809;28;20114;-73
2023/08/22 09:59:55;;;;;;;18.42;8.30;;;;;;;;;;10460161;28;20517;-76
2023/08/22 10:04:57;;;;;;;13.20;8.25;;;;;;;;;;10454283;28;20040;-77
2023/08/22 10:10:00;;;;;;;10.32;8.15;;;;;;;;;;10460819;28;20051;-77
2023/08/22 10:15:07;;;;;;;13.98;7.65;;;;;;;;;;10465205;28;20124;-76
2023/08/22 10:20:12;;;;;;;8.10;7.28;;;;;;;;;;10467671;28;20411;-76
2023/08/22 10:25:15;;;;;;;9.48;7.40;;;;;;;;;;10453714;28;20054;-76
2023/08/22 10:30:20;;;;;;;8.57;7.18;;;;;;;;;;10454774;28;20205;-76
2023/08/22 10:35:24;;;;;;;9.55;7.60;;;;;;;;;;10455919;28;20094;-75
2023/08/22 10:40:31;;;;;;;9.18;6.45;;;;;;;;;;10457572;28;20063;-76
2023/08/22 10:45:39;;;;;;;10.07;7.32;;;;;;;;;;10451739;28;20084;-76
2023/08/22 10:50:43;;;;;;;7.47;6.50;;;;;;;;;;10466988;28;20064;-76
2023/08/22 10:55:46;;;;;;;7.50;6.72;;;;;;;;;;10473963;28;20095;-76
2023/08/22 11:00:50;;;;;;;7.60;6.20;;;;;;;;;;10461491;28;20116;-77
2023/08/22 11:05:53;;;;;;;9.00;7.15;;;;;;;;;;10471180;28;20055;-76
2023/08/22 11:10:57;;;;;;;9.38;6.50;;;;;;;;;;10463705;28;20057;-76
2023/08/22 11:16:02;;;;;;;9.25;6.95;;;;;;;;;;10471624;28;20582;-76
2023/08/22 11:21:05;;;;;;;9.80;7.40;;;;;;;;;;10461981;28;20531;-75
2023/08/22 11:26:08;;;;;;;7.35;5.75;;;;;;;;;;10462315;28;20048;-75
2023/08/22 11:31:17;;;;;;;9.80;6.50;;;;;;;;;;10476148;28;20065;-77
2023/08/22 11:36:21;;;;;;;13.82;6.80;;;;;;;;;;10467082;28;20037;-77
2023/08/22 11:41:29;;;;;;;10.70;6.80;;;;;;;;;;10459560;28;20370;-76
2023/08/22 11:46:39;;;;;;;11.77;6.60;;;;;;;;;;10463159;28;20048;-77
2023/08/22 11:51:43;;;;;;;8.07;6.65;;;;;;;;;;10465995;28;20478;-77
2023/08/22 11:56:46;;;;;;;10.27;7.32;;;;;;;;;;10454761;28;20065;-77
2023/08/22 12:01:50;;;;;;;8.35;6.78;;;;;;;;;;10469570;28;20124;-76
2023/08/22 12:06:59;;;;;;;8.25;6.05;;;;;;;;;;10475168;28;20440;-77
2023/08/22 12:12:12;;;;;;;8.32;6.78;;;;;;;;;;10466990;28;20055;-78
2023/08/22 12:17:16;;;;;;;10.55;6.63;;;;;;;;;;10475422;28;20542;-78
2023/08/22 12:22:19;;;;;;;8.68;5.80;;;;;;;;;;10461312;28;20079;-77
2023/08/22 12:27:22;;;;;;;9.25;5.60;;;;;;;;;;10458471;28;20072;-77
2023/08/22 12:32:26;;;;;;;11.88;6.50;;;;;;;;;;10470098;28;20071;-77
2023/08/22 12:37:29;;;;;;;7.97;6.05;;;;;;;;;;10457828;28;20072;-77
2023/08/22 12:42:32;;;;;;;11.05;6.40;;;;;;;;;;10463760;28;20033;-77
2023/08/22 12:47:37;;;;;;;9.55;6.85;;;;;;;;;;10476947;28;20048;-78
2023/08/22 12:52:39;;;;;;;8.93;6.60;;;;;;;;;;10471058;28;20037;-77
2023/08/22 12:57:42;;;;;;;10.13;6.40;;;;;;;;;;10473614;28;20040;-77
2023/08/22 13:02:47;;;;;;;8.57;6.28;;;;;;;;;;10462064;28;20147;-77
2023/08/22 13:07:50;;;;;;;8.93;6.82;;;;;;;;;;10466776;28;20037;-77
2023/08/22 13:12:53;;;;;;;8.93;6.60;;;;;;;;;;10460255;28;20264;-77
2023/08/22 13:17:57;;;;;;;9.23;6.35;;;;;;;;;;10467938;28;20057;-76
2023/08/22 13:23:01;;;;;;;8.52;6.10;;;;;;;;;;10468693;28;20037;-77
2023/08/22 13:28:04;;;;;;;9.68;6.22;;;;;;;;;;10471800;28;20090;-80
2023/08/22 13:33:08;;;;;;;10.48;7.03;;;;;;;;;;10455424;28;20090;-79
2023/08/22 13:38:10;;;;;;;10.88;6.85;;;;;;;;;;10460114;28;20106;-80
2023/08/22 13:43:13;;;;;;;9.55;6.53;;;;;;;;;;10466776;28;20132;-80
2023/08/22 13:48:17;;;;;;;10.75;6.45;;;;;;;;;;10463386;28;20075;-80
2023/08/22 13:53:20;;;;;;;9.07;6.55;;;;;;;;;;10458509;28;20127;-78
2023/08/22 13:58:23;;;;;;;11.82;5.90;;;;;;;;;;10483631;28;20131;-79
2023/08/22 14:03:27;;;;;;;9.32;6.40;;;;;;;;;;10465496;28;20048;-78
2023/08/22 14:08:29;;;;;;;9.73;6.95;;;;;;;;;;10452957;28;20453;-79
2023/08/22 14:13:33;;;;;;;8.57;6.50;;;;;;;;;;10452067;28;20116;-79
2023/08/22 14:18:37;;;;;;;11.63;6.53;;;;;;;;;;10464387;28;20047;-80
2023/08/22 14:23:40;;;;;;;10.10;6.47;;;;;;;;;;10471988;28;20502;-80
2023/08/22 14:28:42;;;;;;;8.15;5.78;;;;;;;;;;10469642;28;20036;-79
2023/08/22 14:33:46;;;;;;;11.93;6.13;;;;;;;;;;10469581;28;20320;-80
2023/08/22 14:38:49;;;;;;;8.90;5.95;;;;;;;;;;10475618;28;20056;-78
2023/08/22 14:43:53;;;;;;;11.50;6.22;;;;;;;;;;10474630;28;20040;-79
2023/08/22 14:48:57;;;;;;;10.55;6.30;;;;;;;;;;10475376;28;20052;-79
2023/08/22 14:54:00;;;;;;;10.65;6.03;;;;;;;;;;10486042;28;20406;-78
2023/08/22 14:59:03;;;;;;;9.60;6.45;;;;;;;;;;10469770;28;20106;-79
2023/08/22 15:04:07;;;;;;;10.35;6.05;;;;;;;;;;10461220;28;20036;-80
2023/08/22 15:09:10;;;;;;;7.88;5.38;;;;;;;;;;10463015;28;20044;-79
2023/08/22 15:14:13;;;;;;;9.88;5.90;;;;;;;;;;10462975;28;20102;-79
2023/08/22 15:19:17;;;;;;;10.60;6.28;;;;;;;;;;10466504;28;20048;-78
2023/08/22 15:24:20;;;;;;;7.82;5.80;;;;;;;;;;10467111;28;20581;-79
2023/08/22 15:29:23;;;;;;;9.45;5.82;;;;;;;;;;10459987;28;20405;-78
2023/08/22 15:34:27;;;;;;;9.45;5.95;;;;;;;;;;10460659;28;20171;-79
2023/08/22 15:39:30;;;;;;;8.52;5.72;;;;;;;;;;10458986;28;20492;-80
2023/08/22 15:44:32;;;;;;;7.95;5.28;;;;;;;;;;10470407;28;20067;-79
2023/08/22 15:49:36;;;;;;;9.73;6.05;;;;;;;;;;10471771;28;20036;-79
2023/08/22 15:54:39;;;;;;;10.05;5.28;;;;;;;;;;10473665;28;20102;-80
2023/08/22 15:59:42;;;;;;;9.65;5.90;;;;;;;;;;10474906;28;20045;-79
2023/08/22 16:04:46;;;;;;;9.77;5.47;;;;;;;;;;10473265;28;20131;-80
2023/08/22 16:09:49;;;;;;;8.50;5.72;;;;;;;;;;10460864;28;20036;-79
2023/08/22 16:14:52;;;;;;;10.60;5.47;;;;;;;;;;10454592;28;20127;-79
2023/08/22 16:19:56;;;;;;;10.75;5.53;;;;;;;;;;10458918;28;20048;-79
2023/08/22 16:24:59;;;;;;;8.85;5.60;;;;;;;;;;10464936;28;20052;-80
2023/08/22 16:30:02;;;;;;;6.25;4.93;;;;;;;;;;10461766;28;20053;-79
2023/08/22 16:35:07;;;;;;;12.90;5.38;;;;;;;;;;10464256;28;20052;-79
2023/08/22 16:40:11;;;;;;;9.45;5.00;;;;;;;;;;10471592;28;20101;-79
2023/08/22 16:45:14;;;;;;;6.57;4.10;;;;;;;;;;10459361;28;20113;-79
2023/08/22 16:50:18;;;;;;;8.88;4.15;;;;;;;;;;10460962;28;20543;-79
2023/08/22 16:55:21;;;;;;;6.78;4.00;;;;;;;;;;10457939;28;20135;-79
2023/08/22 17:00:24;;;;;;;9.07;4.50;;;;;;;;;;10457980;28;20059;-80
2023/08/22 17:05:29;;;;;;;7.65;4.00;;;;;;;;;;10458209;28;20046;-79
2023/08/22 17:10:31;;;;;;;7.20;4.10;;;;;;;;;;10455148;28;20123;-79
2023/08/22 17:15:34;;;;;;;7.32;4.28;;;;;;;;;;10459578;28;20052;-78
2023/08/22 17:20:38;;;;;;;8.18;4.35;;;;;;;;;;10458120;28;20049;-79
2023/08/22 17:25:41;;;;;;;6.45;3.80;;;;;;;;;;10459548;28;20041;-80
2023/08/22 17:30:43;;;;;;;5.80;3.63;;;;;;;;;;10464029;28;20445;-79
2023/08/22 17:35:47;;;;;;;8.30;4.10;;;;;;;;;;10462875;28;20481;-79
2023/08/22 17:40:50;;;;;;;8.63;5.13;;;;;;;;;;10470178;28;20091;-79
2023/08/22 17:45:53;;;;;;;6.07;4.00;;;;;;;;;;10458652;28;20040;-79
2023/08/22 17:50:57;;;;;;;8.48;4.35;;;;;;;;;;10451801;28;20074;-79
2023/08/22 17:56:00;;;;;;;6.78;4.28;;;;;;;;;;10454054;28;20489;-79
2023/08/22 18:01:03;;;;;;;8.02;4.60;;;;;;;;;;10455480;28;20052;-79
2023/08/22 18:06:07;;;;;;;7.70;4.50;;;;;;;;;;10448832;28;20037;-78
2023/08/22 18:11:10;;;;;;;8.98;4.50;;;;;;;;;;10457077;28;20083;-80
2023/08/22 18:16:13;;;;;;;7.85;4.25;;;;;;;;;;10465354;28;20475;-81
2023/08/22 18:21:17;;;;;;;7.38;4.13;;;;;;;;;;10468521;28;20067;-82
2023/08/22 18:26:21;;;;;;;6.85;4.03;;;;;;;;;;10468749;28;20445;-80
2023/08/22 18:31:24;;;;;;;10.00;3.90;;;;;;;;;;10466833;28;20081;-79
2023/08/22 18:36:30;;;;;;;7.40;3.90;;;;;;;;;;10472019;28;20048;-78
2023/08/22 18:41:32;;;;;;;8.90;4.68;;;;;;;;;;10458814;28;20124;-85
2023/08/22 18:46:35;;;;;;;11.63;4.20;;;;;;;;;;10458215;28;20041;-85
2023/08/22 18:51:39;;;;;;;6.78;4.30;;;;;;;;;;10454987;28;20049;-81
2023/08/22 18:56:42;;;;;;;6.03;4.10;;;;;;;;;;10452004;28;20049;-81
2023/08/22 19:01:45;;;;;;;13.05;4.50;;;;;;;;;;10456123;28;20048;-82
2023/08/22 19:06:49;;;;;;;8.20;4.40;;;;;;;;;;10463819;28;20039;-81
2023/08/22 19:11:52;;;;;;;8.13;4.10;;;;;;;;;;10467370;28;20037;-83
2023/08/22 19:16:54;;;;;;;9.43;4.25;;;;;;;;;;10468110;28;20029;-80
2023/08/22 19:21:58;;;;;;;7.32;4.65;;;;;;;;;;10460565;28;20041;-81
2023/08/22 19:27:01;;;;;;;8.40;4.03;;;;;;;;;;10463840;28;20638;-81
2023/08/22 19:32:04;;;;;;;10.20;4.70;;;;;;;;;;10470778;28;20075;-80
2023/08/22 19:37:27;;;;;;;8.57;4.38;;;;;;;;;;10464193;28;20049;-82
2023/08/22 19:42:30;;;;;;;7.80;4.25;;;;;;;;;;10471304;28;20052;-82
2023/08/22 19:47:34;;;;;;;6.47;4.10;;;;;;;;;;10456830;28;20512;-82
2023/08/22 19:52:38;;;;;;;7.88;4.22;;;;;;;;;;10460340;28;20102;-79
2023/08/22 19:57:41;;;;;;;7.22;4.10;;;;;;;;;;10462828;28;20045;-81
2023/08/22 20:02:45;;;;;;;11.32;4.63;;;;;;;;;;10467515;28;20080;-81
2023/08/22 20:07:51;;;;;;;6.60;4.20;;;;;;;;;;10463024;28;20052;-82
2023/08/22 20:12:54;;;;;;;5.68;3.90;;;;;;;;;;10468498;28;20564;-81
2023/08/22 20:17:56;;;;;;;7.78;4.75;;;;;;;;;;10476194;28;20044;-81
2023/08/22 20:23:01;;;;;;;9.38;4.10;;;;;;;;;;10468166;28;20079;-81
2023/08/22 20:28:04;;;;;;;8.85;4.60;;;;;;;;;;10480333;28;20132;-80
2023/08/22 20:33:07;;;;;;;8.38;4.70;;;;;;;;;;10474759;28;20075;-79
2023/08/22 20:38:13;;;;;;;8.45;4.28;;;;;;;;;;10473035;28;20041;-80
2023/08/22 20:43:17;;;;;;;6.88;4.40;;;;;;;;;;10471099;28;20371;-77
2023/08/22 20:48:21;;;;;;;11.23;4.60;;;;;;;;;;10477198;28;20086;-78
2023/08/22 20:53:26;;;;;;;12.27;4.50;;;;;;;;;;10478625;28;20055;-81
2023/08/22 20:58:28;;;;;;;6.35;4.40;;;;;;;;;;10471606;28;20120;-80
2023/08/22 21:03:31;;;;;;;8.90;3.97;;;;;;;;;;10482628;28;20040;-83
2023/08/22 21:14:02;;;;;;;8.65;4.00;;;;;;;;;;10495660;28;20052;-80
2023/08/22 21:19:05;;;;;;;7.45;3.63;;;;;;;;;;10491391;28;20049;-82
2023/08/22 21:24:09;;;;;;;9.32;4.30;;;;;;;;;;10499320;28;20037;-81
2023/08/22 21:29:16;;;;;;;5.95;3.83;;;;;;;;;;10494779;28;20128;-82
2023/08/22 21:34:19;;;;;;;7.55;4.10;;;;;;;;;;10484115;28;20044;-80
2023/08/22 21:39:23;;;;;;;9.85;4.22;;;;;;;;;;10483049;28;20067;-83
2023/08/22 21:44:29;;;;;;;8.55;4.00;;;;;;;;;;10489158;28;20837;-80
2023/08/22 21:49:32;;;;;;;6.82;3.97;;;;;;;;;;10477475;28;20047;-80
2023/08/22 21:54:36;;;;;;;7.65;3.90;;;;;;;;;;10483239;28;20055;-84
2023/08/22 21:59:39;;;;;;;7.28;4.35;;;;;;;;;;10493717;28;20116;-81
2023/08/22 22:04:43;;;;;;;9.70;4.22;;;;;;;;;;10493567;28;20124;-78
2023/08/22 22:09:47;;;;;;;6.03;3.95;;;;;;;;;;10490627;28;20048;-78
2023/08/22 22:14:50;;;;;;;6.22;3.88;;;;;;;;;;10484044;28;20090;-80
2023/08/22 22:19:53;;;;;;;7.80;4.00;;;;;;;;;;10488104;28;20110;-80
2023/08/22 22:25:00;;;;;;;6.22;4.20;;;;;;;;;;10478407;28;20048;-78
2023/08/22 22:30:02;;;;;;;11.65;4.13;;;;;;;;;;10470391;28;20171;-78
2023/08/22 22:35:05;;;;;;;7.75;4.32;;;;;;;;;;10474279;28;20039;-77
2023/08/22 22:40:10;;;;;;;10.88;4.18;;;;;;;;;;10472959;28;20102;-79
2023/08/22 22:45:12;;;;;;;7.35;4.32;;;;;;;;;;10476956;28;20401;-79
2023/08/22 22:50:15;;;;;;;6.80;4.03;;;;;;;;;;10477680;28;20049;-78
2023/08/22 22:55:19;;;;;;;8.65;4.13;;;;;;;;;;10478688;28;20037;-78
2023/08/22 23:00:22;;;;;;;7.97;4.63;;;;;;;;;;10472212;28;20375;-77
2023/08/22 23:05:25;;;;;;;7.28;4.63;;;;;;;;;;10473441;28;20217;-78
2023/08/22 23:10:29;;;;;;;6.57;4.40;;;;;;;;;;10480382;28;20494;-79
2023/08/22 23:15:32;;;;;;;7.78;4.53;;;;;;;;;;10477116;28;20041;-79
2023/08/22 23:20:35;;;;;;;;;;;;;;;;;;10480066;28;20084;-80
2023/08/22 23:25:39;;;;;;;7.22;4.47;;;;;;;;;;10483043;28;19935;-79
2023/08/22 23:30:42;;;;;;;7.68;4.75;;;;;;;;;;10468781;28;20044;-80
2023/08/22 23:35:44;;;;;;;;;;;;;;;;;;10468932;28;20747;-79
2023/08/22 23:40:48;;;;;;;8.13;5.07;;;;;;;;;;10469183;28;20028;-79
2023/08/22 23:45:51;;;;;;;7.82;4.72;;;;;;;;;;10474565;28;20406;-78
2023/08/22 23:50:53;;;;;;;;;;;;;;;;;;10477069;28;20075;-78
2023/08/22 23:56:04;;;;;;;9.63;5.00;;;;;;;;;;10479580;28;20449;-77
